sensor_id;sensor_type;location;lat;lon;timestamp;P1;durP1;ratioP1;P2;durP2;ratioP2
43124;SDS011;49182;50.788;7.318;2022-08-03T00:01:23;3.70;;;2.20;;
43124;SDS011;49182;50.788;7.318;2022-08-03T00:03:51;4.18;;;2.28;;
43124;SDS011;49182;50.788;7.318;2022-08-03T00:06:18;5.05;;;2.33;;
43124;SDS011;49182;50.788;7.318;2022-08-03T00:08:45;6.47;;;2.40;;
43124;SDS011;49182;50.788;7.318;2022-08-03T00:11:11;5.25;;;2.38;;
43124;SDS011;49182;50.788;7.318;2022-08-03T00:13:38;5.10;;;2.30;;
43124;SDS011;49182;50.788;7.318;2022-08-03T00:16:05;7.07;;;2.17;;
43124;SDS011;49182;50.788;7.318;2022-08-03T00:18:31;4.63;;;2.20;;
43124;SDS011;49182;50.788;7.318;2022-08-03T00:20:59;3.72;;;2.17;;
43124;SDS011;49182;50.788;7.318;2022-08-03T00:23:26;5.25;;;3.10;;
43124;SDS011;49182;50.788;7.318;2022-08-03T00:26:12;4.25;;;2.38;;
43124;SDS011;49182;50.788;7.318;2022-08-03T00:28:39;3.90;;;2.15;;
43124;SDS011;49182;50.788;7.318;2022-08-03T00:31:05;6.03;;;2.53;;
43124;SDS011;49182;50.788;7.318;2022-08-03T00:33:32;4.15;;;2.20;;
43124;SDS011;49182;50.788;7.318;2022-08-03T00:36:20;4.10;;;2.47;;
43124;SDS011;49182;50.788;7.318;2022-08-03T00:38:47;4.28;;;2.40;;
43124;SDS011;49182;50.788;7.318;2022-08-03T00:41:14;4.90;;;2.50;;
43124;SDS011;49182;50.788;7.318;2022-08-03T00:43:40;4.63;;;2.50;;
43124;SDS011;49182;50.788;7.318;2022-08-03T00:46:07;7.45;;;2.47;;
43124;SDS011;49182;50.788;7.318;2022-08-03T00:48:34;4.88;;;2.50;;
43124;SDS011;49182;50.788;7.318;2022-08-03T00:51:01;5.75;;;2.58;;
43124;SDS011;49182;50.788;7.318;2022-08-03T00:53:29;4.07;;;2.28;;
43124;SDS011;49182;50.788;7.318;2022-08-03T00:55:56;5.00;;;2.50;;
43124;SDS011;49182;50.788;7.318;2022-08-03T00:58:23;5.57;;;2.42;;
43124;SDS011;49182;50.788;7.318;2022-08-03T01:00:50;6.50;;;2.22;;
43124;SDS011;49182;50.788;7.318;2022-08-03T01:03:17;4.10;;;2.22;;
43124;SDS011;49182;50.788;7.318;2022-08-03T01:05:45;4.57;;;2.50;;
43124;SDS011;49182;50.788;7.318;2022-08-03T01:08:19;4.35;;;2.58;;
43124;SDS011;49182;50.788;7.318;2022-08-03T01:10:56;4.90;;;2.58;;
43124;SDS011;49182;50.788;7.318;2022-08-03T01:13:33;6.13;;;2.47;;
43124;SDS011;49182;50.788;7.318;2022-08-03T01:16:27;5.07;;;2.65;;
43124;SDS011;49182;50.788;7.318;2022-08-03T01:21:58;6.43;;;2.50;;
43124;SDS011;49182;50.788;7.318;2022-08-03T01:24:36;4.15;;;2.53;;
43124;SDS011;49182;50.788;7.318;2022-08-03T01:27:14;3.78;;;2.42;;
43124;SDS011;49182;50.788;7.318;2022-08-03T01:29:58;5.40;;;2.63;;
43124;SDS011;49182;50.788;7.318;2022-08-03T01:32:30;5.00;;;2.65;;
43124;SDS011;49182;50.788;7.318;2022-08-03T01:35:25;5.80;;;2.75;;
43124;SDS011;49182;50.788;7.318;2022-08-03T01:37:56;4.60;;;2.28;;
43124;SDS011;49182;50.788;7.318;2022-08-03T01:40:27;4.38;;;2.33;;
43124;SDS011;49182;50.788;7.318;2022-08-03T01:42:56;4.53;;;2.20;;
43124;SDS011;49182;50.788;7.318;2022-08-03T01:45:26;4.68;;;2.60;;
43124;SDS011;49182;50.788;7.318;2022-08-03T01:47:59;4.57;;;2.55;;
43124;SDS011;49182;50.788;7.318;2022-08-03T01:50:28;6.18;;;2.80;;
43124;SDS011;49182;50.788;7.318;2022-08-03T01:52:56;4.32;;;2.72;;
43124;SDS011;49182;50.788;7.318;2022-08-03T01:55:24;4.55;;;2.67;;
43124;SDS011;49182;50.788;7.318;2022-08-03T01:57:52;5.68;;;2.80;;
43124;SDS011;49182;50.788;7.318;2022-08-03T02:00:33;4.38;;;2.70;;
43124;SDS011;49182;50.788;7.318;2022-08-03T02:03:01;5.03;;;2.80;;
43124;SDS011;49182;50.788;7.318;2022-08-03T02:05:31;4.70;;;2.67;;
43124;SDS011;49182;50.788;7.318;2022-08-03T02:07:59;4.35;;;2.58;;
43124;SDS011;49182;50.788;7.318;2022-08-03T02:10:27;4.32;;;2.20;;
43124;SDS011;49182;50.788;7.318;2022-08-03T02:13:02;5.60;;;2.67;;
43124;SDS011;49182;50.788;7.318;2022-08-03T02:15:30;5.47;;;2.60;;
43124;SDS011;49182;50.788;7.318;2022-08-03T02:18:00;4.20;;;2.33;;
43124;SDS011;49182;50.788;7.318;2022-08-03T02:20:29;8.48;;;3.00;;
43124;SDS011;49182;50.788;7.318;2022-08-03T02:22:57;6.32;;;2.35;;
43124;SDS011;49182;50.788;7.318;2022-08-03T02:25:24;5.15;;;2.55;;
43124;SDS011;49182;50.788;7.318;2022-08-03T02:27:52;4.65;;;2.83;;
43124;SDS011;49182;50.788;7.318;2022-08-03T02:30:21;4.72;;;2.35;;
43124;SDS011;49182;50.788;7.318;2022-08-03T02:32:55;5.47;;;2.60;;
43124;SDS011;49182;50.788;7.318;2022-08-03T02:35:25;5.57;;;2.97;;
43124;SDS011;49182;50.788;7.318;2022-08-03T02:37:55;5.03;;;2.75;;
43124;SDS011;49182;50.788;7.318;2022-08-03T02:42:54;4.88;;;2.60;;
43124;SDS011;49182;50.788;7.318;2022-08-03T02:45:25;6.07;;;3.00;;
43124;SDS011;49182;50.788;7.318;2022-08-03T02:47:54;5.22;;;2.63;;
43124;SDS011;49182;50.788;7.318;2022-08-03T02:50:26;4.80;;;2.60;;
43124;SDS011;49182;50.788;7.318;2022-08-03T02:52:54;5.85;;;2.60;;
43124;SDS011;49182;50.788;7.318;2022-08-03T02:55:24;4.25;;;2.35;;
43124;SDS011;49182;50.788;7.318;2022-08-03T02:57:52;6.38;;;2.53;;
43124;SDS011;49182;50.788;7.318;2022-08-03T03:00:20;4.85;;;2.55;;
43124;SDS011;49182;50.788;7.318;2022-08-03T03:02:53;6.28;;;2.70;;
43124;SDS011;49182;50.788;7.318;2022-08-03T03:05:22;4.90;;;2.67;;
43124;SDS011;49182;50.788;7.318;2022-08-03T03:08:11;6.72;;;2.60;;
43124;SDS011;49182;50.788;7.318;2022-08-03T03:10:44;5.28;;;2.70;;
43124;SDS011;49182;50.788;7.318;2022-08-03T03:13:12;4.43;;;2.58;;
43124;SDS011;49182;50.788;7.318;2022-08-03T03:15:40;4.60;;;2.70;;
43124;SDS011;49182;50.788;7.318;2022-08-03T03:18:08;6.53;;;3.10;;
43124;SDS011;49182;50.788;7.318;2022-08-03T03:20:36;5.25;;;3.15;;
43124;SDS011;49182;50.788;7.318;2022-08-03T03:23:05;5.43;;;2.80;;
43124;SDS011;49182;50.788;7.318;2022-08-03T03:25:35;5.35;;;2.83;;
43124;SDS011;49182;50.788;7.318;2022-08-03T03:28:02;5.88;;;2.70;;
43124;SDS011;49182;50.788;7.318;2022-08-03T03:30:32;7.22;;;3.88;;
43124;SDS011;49182;50.788;7.318;2022-08-03T03:32:59;4.70;;;2.63;;
43124;SDS011;49182;50.788;7.318;2022-08-03T03:35:26;5.00;;;3.10;;
43124;SDS011;49182;50.788;7.318;2022-08-03T03:37:53;4.50;;;2.80;;
43124;SDS011;49182;50.788;7.318;2022-08-03T03:40:20;6.22;;;2.67;;
43124;SDS011;49182;50.788;7.318;2022-08-03T03:42:48;6.32;;;2.92;;
43124;SDS011;49182;50.788;7.318;2022-08-03T03:45:16;3.80;;;2.30;;
43124;SDS011;49182;50.788;7.318;2022-08-03T03:47:43;5.43;;;2.70;;
43124;SDS011;49182;50.788;7.318;2022-08-03T03:50:10;6.88;;;2.53;;
43124;SDS011;49182;50.788;7.318;2022-08-03T03:52:37;5.05;;;2.80;;
43124;SDS011;49182;50.788;7.318;2022-08-03T03:55:04;4.53;;;2.85;;
43124;SDS011;49182;50.788;7.318;2022-08-03T03:57:32;5.00;;;2.80;;
43124;SDS011;49182;50.788;7.318;2022-08-03T04:00:01;4.22;;;2.60;;
43124;SDS011;49182;50.788;7.318;2022-08-03T04:02:29;4.93;;;2.80;;
43124;SDS011;49182;50.788;7.318;2022-08-03T04:04:56;4.55;;;2.80;;
43124;SDS011;49182;50.788;7.318;2022-08-03T04:07:24;4.88;;;2.80;;
43124;SDS011;49182;50.788;7.318;2022-08-03T04:09:51;5.47;;;2.70;;
43124;SDS011;49182;50.788;7.318;2022-08-03T04:12:25;6.00;;;2.88;;
43124;SDS011;49182;50.788;7.318;2022-08-03T04:14:55;5.03;;;3.00;;
43124;SDS011;49182;50.788;7.318;2022-08-03T04:17:25;4.40;;;2.72;;
43124;SDS011;49182;50.788;7.318;2022-08-03T04:19:53;7.03;;;2.95;;
43124;SDS011;49182;50.788;7.318;2022-08-03T04:22:23;5.13;;;3.03;;
43124;SDS011;49182;50.788;7.318;2022-08-03T04:24:54;6.63;;;2.63;;
43124;SDS011;49182;50.788;7.318;2022-08-03T04:27:24;5.30;;;2.53;;
43124;SDS011;49182;50.788;7.318;2022-08-03T04:29:54;5.28;;;3.10;;
43124;SDS011;49182;50.788;7.318;2022-08-03T04:32:22;4.75;;;3.05;;
43124;SDS011;49182;50.788;7.318;2022-08-03T04:34:52;4.70;;;2.92;;
43124;SDS011;49182;50.788;7.318;2022-08-03T04:37:21;5.97;;;3.00;;
43124;SDS011;49182;50.788;7.318;2022-08-03T04:39:52;7.63;;;2.50;;
43124;SDS011;49182;50.788;7.318;2022-08-03T04:42:23;4.65;;;2.67;;
43124;SDS011;49182;50.788;7.318;2022-08-03T04:44:50;4.40;;;2.63;;
43124;SDS011;49182;50.788;7.318;2022-08-03T04:47:26;6.43;;;2.58;;
43124;SDS011;49182;50.788;7.318;2022-08-03T04:49:54;7.35;;;2.70;;
43124;SDS011;49182;50.788;7.318;2022-08-03T04:52:21;4.05;;;2.50;;
43124;SDS011;49182;50.788;7.318;2022-08-03T04:54:48;5.13;;;2.85;;
43124;SDS011;49182;50.788;7.318;2022-08-03T04:57:17;4.40;;;2.40;;
43124;SDS011;49182;50.788;7.318;2022-08-03T04:59:48;10.65;;;2.65;;
43124;SDS011;49182;50.788;7.318;2022-08-03T05:02:15;5.47;;;2.40;;
43124;SDS011;49182;50.788;7.318;2022-08-03T05:04:42;4.40;;;2.55;;
43124;SDS011;49182;50.788;7.318;2022-08-03T05:07:10;4.53;;;2.85;;
43124;SDS011;49182;50.788;7.318;2022-08-03T05:09:38;5.18;;;2.38;;
43124;SDS011;49182;50.788;7.318;2022-08-03T05:12:22;6.85;;;2.75;;
43124;SDS011;49182;50.788;7.318;2022-08-03T05:14:49;4.55;;;2.58;;
43124;SDS011;49182;50.788;7.318;2022-08-03T05:17:16;4.38;;;2.40;;
43124;SDS011;49182;50.788;7.318;2022-08-03T05:19:42;4.10;;;2.50;;
43124;SDS011;49182;50.788;7.318;2022-08-03T05:22:10;4.55;;;2.70;;
43124;SDS011;49182;50.788;7.318;2022-08-03T05:24:37;6.22;;;2.83;;
43124;SDS011;49182;50.788;7.318;2022-08-03T05:27:04;5.93;;;2.80;;
43124;SDS011;49182;50.788;7.318;2022-08-03T05:29:30;4.30;;;2.70;;
43124;SDS011;49182;50.788;7.318;2022-08-03T05:31:57;5.55;;;3.20;;
43124;SDS011;49182;50.788;7.318;2022-08-03T05:34:24;6.55;;;2.65;;
43124;SDS011;49182;50.788;7.318;2022-08-03T05:36:50;4.18;;;2.70;;
43124;SDS011;49182;50.788;7.318;2022-08-03T05:39:19;5.47;;;2.60;;
43124;SDS011;49182;50.788;7.318;2022-08-03T05:41:45;5.03;;;2.60;;
43124;SDS011;49182;50.788;7.318;2022-08-03T05:44:12;5.30;;;2.78;;
43124;SDS011;49182;50.788;7.318;2022-08-03T05:46:39;5.35;;;3.15;;
43124;SDS011;49182;50.788;7.318;2022-08-03T05:49:05;4.65;;;3.00;;
43124;SDS011;49182;50.788;7.318;2022-08-03T05:51:32;6.40;;;2.78;;
43124;SDS011;49182;50.788;7.318;2022-08-03T05:53:59;4.43;;;2.65;;
43124;SDS011;49182;50.788;7.318;2022-08-03T05:56:27;18.70;;;3.47;;
43124;SDS011;49182;50.788;7.318;2022-08-03T05:58:54;3.90;;;2.60;;
43124;SDS011;49182;50.788;7.318;2022-08-03T06:01:21;4.80;;;2.85;;
43124;SDS011;49182;50.788;7.318;2022-08-03T06:03:48;5.28;;;2.83;;
43124;SDS011;49182;50.788;7.318;2022-08-03T06:06:15;4.82;;;2.88;;
43124;SDS011;49182;50.788;7.318;2022-08-03T06:08:43;5.97;;;2.70;;
43124;SDS011;49182;50.788;7.318;2022-08-03T06:11:11;4.38;;;2.72;;
43124;SDS011;49182;50.788;7.318;2022-08-03T06:13:39;5.72;;;2.90;;
43124;SDS011;49182;50.788;7.318;2022-08-03T06:16:07;5.72;;;2.70;;
43124;SDS011;49182;50.788;7.318;2022-08-03T06:18:33;4.43;;;2.50;;
43124;SDS011;49182;50.788;7.318;2022-08-03T06:21:00;6.28;;;2.80;;
43124;SDS011;49182;50.788;7.318;2022-08-03T06:23:42;4.80;;;2.70;;
43124;SDS011;49182;50.788;7.318;2022-08-03T06:26:24;8.52;;;3.25;;
43124;SDS011;49182;50.788;7.318;2022-08-03T06:28:53;5.05;;;2.70;;
43124;SDS011;49182;50.788;7.318;2022-08-03T06:31:21;5.35;;;2.70;;
43124;SDS011;49182;50.788;7.318;2022-08-03T06:33:49;4.10;;;2.65;;
43124;SDS011;49182;50.788;7.318;2022-08-03T06:36:36;5.45;;;2.47;;
43124;SDS011;49182;50.788;7.318;2022-08-03T06:39:03;4.53;;;2.40;;
43124;SDS011;49182;50.788;7.318;2022-08-03T06:41:30;4.60;;;2.58;;
43124;SDS011;49182;50.788;7.318;2022-08-03T06:44:07;4.63;;;2.70;;
43124;SDS011;49182;50.788;7.318;2022-08-03T06:46:35;3.80;;;2.38;;
43124;SDS011;49182;50.788;7.318;2022-08-03T06:49:02;3.33;;;2.10;;
43124;SDS011;49182;50.788;7.318;2022-08-03T06:51:29;4.18;;;2.50;;
43124;SDS011;49182;50.788;7.318;2022-08-03T06:54:15;4.10;;;2.58;;
43124;SDS011;49182;50.788;7.318;2022-08-03T06:56:42;7.07;;;2.60;;
43124;SDS011;49182;50.788;7.318;2022-08-03T06:59:10;4.72;;;2.28;;
43124;SDS011;49182;50.788;7.318;2022-08-03T07:01:57;4.25;;;2.47;;
43124;SDS011;49182;50.788;7.318;2022-08-03T07:04:23;4.43;;;2.50;;
43124;SDS011;49182;50.788;7.318;2022-08-03T07:06:50;4.70;;;2.42;;
43124;SDS011;49182;50.788;7.318;2022-08-03T07:09:17;5.82;;;2.60;;
43124;SDS011;49182;50.788;7.318;2022-08-03T07:11:43;7.18;;;2.40;;
43124;SDS011;49182;50.788;7.318;2022-08-03T07:14:11;4.18;;;2.33;;
43124;SDS011;49182;50.788;7.318;2022-08-03T07:16:38;6.55;;;2.50;;
43124;SDS011;49182;50.788;7.318;2022-08-03T07:19:04;8.05;;;2.85;;
43124;SDS011;49182;50.788;7.318;2022-08-03T07:21:31;6.07;;;2.40;;
43124;SDS011;49182;50.788;7.318;2022-08-03T07:23:57;5.88;;;2.50;;
43124;SDS011;49182;50.788;7.318;2022-08-03T07:26:24;4.25;;;2.20;;
43124;SDS011;49182;50.788;7.318;2022-08-03T07:28:51;10.82;;;2.45;;
43124;SDS011;49182;50.788;7.318;2022-08-03T07:31:19;3.80;;;2.20;;
43124;SDS011;49182;50.788;7.318;2022-08-03T07:33:45;7.47;;;2.42;;
43124;SDS011;49182;50.788;7.318;2022-08-03T07:36:12;4.85;;;2.33;;
43124;SDS011;49182;50.788;7.318;2022-08-03T07:38:38;3.70;;;2.17;;
43124;SDS011;49182;50.788;7.318;2022-08-03T07:41:05;4.65;;;2.47;;
43124;SDS011;49182;50.788;7.318;2022-08-03T07:43:32;4.85;;;2.38;;
43124;SDS011;49182;50.788;7.318;2022-08-03T07:45:58;5.07;;;2.25;;
43124;SDS011;49182;50.788;7.318;2022-08-03T07:48:26;5.28;;;2.30;;
43124;SDS011;49182;50.788;7.318;2022-08-03T07:50:53;4.95;;;2.40;;
43124;SDS011;49182;50.788;7.318;2022-08-03T07:53:20;5.10;;;2.25;;
43124;SDS011;49182;50.788;7.318;2022-08-03T07:55:46;6.72;;;2.50;;
43124;SDS011;49182;50.788;7.318;2022-08-03T07:58:13;9.32;;;2.53;;
43124;SDS011;49182;50.788;7.318;2022-08-03T08:00:40;7.80;;;3.88;;
43124;SDS011;49182;50.788;7.318;2022-08-03T08:03:07;4.13;;;2.22;;
43124;SDS011;49182;50.788;7.318;2022-08-03T08:05:35;6.15;;;2.95;;
43124;SDS011;49182;50.788;7.318;2022-08-03T08:08:02;5.20;;;2.30;;
43124;SDS011;49182;50.788;7.318;2022-08-03T08:10:30;6.38;;;2.53;;
43124;SDS011;49182;50.788;7.318;2022-08-03T08:12:57;3.70;;;2.17;;
43124;SDS011;49182;50.788;7.318;2022-08-03T08:15:24;4.60;;;2.25;;
43124;SDS011;49182;50.788;7.318;2022-08-03T08:17:52;4.47;;;2.22;;
43124;SDS011;49182;50.788;7.318;2022-08-03T08:20:21;5.15;;;2.30;;
43124;SDS011;49182;50.788;7.318;2022-08-03T08:22:57;4.05;;;1.95;;
43124;SDS011;49182;50.788;7.318;2022-08-03T08:25:27;4.13;;;2.25;;
43124;SDS011;49182;50.788;7.318;2022-08-03T08:27:54;9.73;;;3.40;;
43124;SDS011;49182;50.788;7.318;2022-08-03T08:30:41;6.50;;;3.70;;
43124;SDS011;49182;50.788;7.318;2022-08-03T08:33:08;6.15;;;2.45;;
43124;SDS011;49182;50.788;7.318;2022-08-03T08:35:49;7.15;;;3.45;;
43124;SDS011;49182;50.788;7.318;2022-08-03T08:38:17;3.80;;;1.83;;
43124;SDS011;49182;50.788;7.318;2022-08-03T08:40:44;4.55;;;1.83;;
43124;SDS011;49182;50.788;7.318;2022-08-03T08:43:11;4.20;;;2.00;;
43124;SDS011;49182;50.788;7.318;2022-08-03T08:45:39;6.00;;;2.38;;
43124;SDS011;49182;50.788;7.318;2022-08-03T08:48:06;5.25;;;2.25;;
43124;SDS011;49182;50.788;7.318;2022-08-03T08:50:36;4.85;;;2.78;;
43124;SDS011;49182;50.788;7.318;2022-08-03T08:53:03;5.90;;;2.05;;
43124;SDS011;49182;50.788;7.318;2022-08-03T08:55:45;7.60;;;2.08;;
43124;SDS011;49182;50.788;7.318;2022-08-03T08:58:25;4.40;;;1.90;;
43124;SDS011;49182;50.788;7.318;2022-08-03T09:00:55;4.75;;;2.10;;
43124;SDS011;49182;50.788;7.318;2022-08-03T09:03:22;4.03;;;1.90;;
43124;SDS011;49182;50.788;7.318;2022-08-03T09:05:56;5.25;;;1.95;;
43124;SDS011;49182;50.788;7.318;2022-08-03T09:08:24;5.18;;;1.80;;
43124;SDS011;49182;50.788;7.318;2022-08-03T09:10:52;4.32;;;1.80;;
43124;SDS011;49182;50.788;7.318;2022-08-03T09:13:19;4.30;;;1.70;;
43124;SDS011;49182;50.788;7.318;2022-08-03T09:15:46;4.07;;;1.73;;
43124;SDS011;49182;50.788;7.318;2022-08-03T09:18:27;5.20;;;1.65;;
43124;SDS011;49182;50.788;7.318;2022-08-03T09:21:10;3.80;;;1.60;;
43124;SDS011;49182;50.788;7.318;2022-08-03T09:23:57;4.07;;;1.50;;
43124;SDS011;49182;50.788;7.318;2022-08-03T09:26:31;5.05;;;1.85;;
43124;SDS011;49182;50.788;7.318;2022-08-03T09:29:00;5.10;;;1.85;;
43124;SDS011;49182;50.788;7.318;2022-08-03T09:31:36;3.03;;;1.60;;
43124;SDS011;49182;50.788;7.318;2022-08-03T09:34:09;4.57;;;1.40;;
43124;SDS011;49182;50.788;7.318;2022-08-03T09:36:37;3.00;;;1.52;;
43124;SDS011;49182;50.788;7.318;2022-08-03T09:39:06;3.22;;;1.40;;
43124;SDS011;49182;50.788;7.318;2022-08-03T09:41:36;4.32;;;1.67;;
43124;SDS011;49182;50.788;7.318;2022-08-03T09:44:04;5.32;;;1.50;;
43124;SDS011;49182;50.788;7.318;2022-08-03T09:46:31;11.13;;;1.73;;
43124;SDS011;49182;50.788;7.318;2022-08-03T09:49:15;4.25;;;1.40;;
43124;SDS011;49182;50.788;7.318;2022-08-03T09:51:42;4.72;;;1.67;;
43124;SDS011;49182;50.788;7.318;2022-08-03T09:54:30;4.00;;;1.70;;
43124;SDS011;49182;50.788;7.318;2022-08-03T09:56:59;3.53;;;1.50;;
43124;SDS011;49182;50.788;7.318;2022-08-03T09:59:26;4.28;;;1.50;;
43124;SDS011;49182;50.788;7.318;2022-08-03T10:01:54;4.93;;;1.50;;
43124;SDS011;49182;50.788;7.318;2022-08-03T10:04:21;4.40;;;1.40;;
43124;SDS011;49182;50.788;7.318;2022-08-03T10:07:01;7.88;;;1.63;;
43124;SDS011;49182;50.788;7.318;2022-08-03T10:09:30;4.38;;;1.40;;
43124;SDS011;49182;50.788;7.318;2022-08-03T10:11:56;6.10;;;1.25;;
43124;SDS011;49182;50.788;7.318;2022-08-03T10:14:31;3.42;;;1.13;;
43124;SDS011;49182;50.788;7.318;2022-08-03T10:16:59;3.65;;;1.35;;
43124;SDS011;49182;50.788;7.318;2022-08-03T10:19:25;3.60;;;1.30;;
43124;SDS011;49182;50.788;7.318;2022-08-03T10:21:52;4.45;;;1.30;;
43124;SDS011;49182;50.788;7.318;2022-08-03T10:24:23;2.65;;;1.30;;
43124;SDS011;49182;50.788;7.318;2022-08-03T10:26:51;4.63;;;1.35;;
43124;SDS011;49182;50.788;7.318;2022-08-03T10:29:23;5.53;;;1.60;;
43124;SDS011;49182;50.788;7.318;2022-08-03T10:31:55;4.03;;;1.40;;
43124;SDS011;49182;50.788;7.318;2022-08-03T10:34:25;2.88;;;1.30;;
43124;SDS011;49182;50.788;7.318;2022-08-03T10:36:55;2.13;;;1.13;;
43124;SDS011;49182;50.788;7.318;2022-08-03T10:39:26;4.03;;;1.27;;
43124;SDS011;49182;50.788;7.318;2022-08-03T10:41:55;3.40;;;1.17;;
43124;SDS011;49182;50.788;7.318;2022-08-03T10:44:25;2.92;;;1.23;;
43124;SDS011;49182;50.788;7.318;2022-08-03T10:46:54;3.88;;;1.30;;
43124;SDS011;49182;50.788;7.318;2022-08-03T10:49:22;4.47;;;1.50;;
43124;SDS011;49182;50.788;7.318;2022-08-03T10:52:00;5.93;;;1.55;;
43124;SDS011;49182;50.788;7.318;2022-08-03T10:54:39;4.32;;;2.05;;
43124;SDS011;49182;50.788;7.318;2022-08-03T10:57:07;5.60;;;1.38;;
43124;SDS011;49182;50.788;7.318;2022-08-03T11:00:16;3.50;;;1.30;;
43124;SDS011;49182;50.788;7.318;2022-08-03T11:05:41;3.83;;;1.40;;
43124;SDS011;49182;50.788;7.318;2022-08-03T11:08:21;2.85;;;1.10;;
43124;SDS011;49182;50.788;7.318;2022-08-03T11:10:50;3.55;;;1.42;;
43124;SDS011;49182;50.788;7.318;2022-08-03T11:13:19;5.47;;;1.10;;
43124;SDS011;49182;50.788;7.318;2022-08-03T11:15:49;3.95;;;1.40;;
43124;SDS011;49182;50.788;7.318;2022-08-03T11:18:25;4.03;;;1.50;;
43124;SDS011;49182;50.788;7.318;2022-08-03T11:20:53;3.60;;;1.50;;
43124;SDS011;49182;50.788;7.318;2022-08-03T11:26:27;5.38;;;1.50;;
43124;SDS011;49182;50.788;7.318;2022-08-03T11:29:09;3.53;;;1.20;;
43124;SDS011;49182;50.788;7.318;2022-08-03T11:31:54;5.72;;;1.60;;
43124;SDS011;49182;50.788;7.318;2022-08-03T11:34:21;6.00;;;1.23;;
43124;SDS011;49182;50.788;7.318;2022-08-03T11:39:55;4.75;;;1.60;;
43124;SDS011;49182;50.788;7.318;2022-08-03T11:42:38;4.63;;;1.50;;
43124;SDS011;49182;50.788;7.318;2022-08-03T11:45:06;2.78;;;1.15;;
43124;SDS011;49182;50.788;7.318;2022-08-03T11:47:37;9.80;;;1.30;;
43124;SDS011;49182;50.788;7.318;2022-08-03T11:50:16;4.53;;;1.30;;
43124;SDS011;49182;50.788;7.318;2022-08-03T11:52:43;4.13;;;1.33;;
43124;SDS011;49182;50.788;7.318;2022-08-03T11:55:12;3.15;;;1.20;;
43124;SDS011;49182;50.788;7.318;2022-08-03T11:57:40;3.13;;;1.40;;
43124;SDS011;49182;50.788;7.318;2022-08-03T12:00:28;2.85;;;1.55;;
43124;SDS011;49182;50.788;7.318;2022-08-03T12:02:58;6.22;;;1.55;;
43124;SDS011;49182;50.788;7.318;2022-08-03T12:05:36;4.40;;;1.48;;
43124;SDS011;49182;50.788;7.318;2022-08-03T12:08:17;3.35;;;1.33;;
43124;SDS011;49182;50.788;7.318;2022-08-03T12:10:55;3.85;;;1.30;;
43124;SDS011;49182;50.788;7.318;2022-08-03T12:13:23;5.55;;;1.55;;
43124;SDS011;49182;50.788;7.318;2022-08-03T12:16:14;4.20;;;1.85;;
43124;SDS011;49182;50.788;7.318;2022-08-03T12:18:44;4.85;;;2.70;;
43124;SDS011;49182;50.788;7.318;2022-08-03T12:21:11;4.80;;;2.35;;
43124;SDS011;49182;50.788;7.318;2022-08-03T12:23:38;6.07;;;1.40;;
43124;SDS011;49182;50.788;7.318;2022-08-03T12:26:05;4.43;;;1.25;;
43124;SDS011;49182;50.788;7.318;2022-08-03T12:28:33;3.13;;;1.40;;
43124;SDS011;49182;50.788;7.318;2022-08-03T12:31:04;4.40;;;1.50;;
43124;SDS011;49182;50.788;7.318;2022-08-03T12:33:34;2.85;;;1.42;;
43124;SDS011;49182;50.788;7.318;2022-08-03T12:36:24;4.70;;;1.60;;
43124;SDS011;49182;50.788;7.318;2022-08-03T12:38:53;7.20;;;1.40;;
43124;SDS011;49182;50.788;7.318;2022-08-03T12:41:26;3.72;;;1.10;;
43124;SDS011;49182;50.788;7.318;2022-08-03T12:43:55;3.80;;;1.30;;
43124;SDS011;49182;50.788;7.318;2022-08-03T12:46:22;3.60;;;1.23;;
43124;SDS011;49182;50.788;7.318;2022-08-03T12:49:01;8.35;;;1.10;;
43124;SDS011;49182;50.788;7.318;2022-08-03T12:51:32;3.95;;;1.77;;
43124;SDS011;49182;50.788;7.318;2022-08-03T12:54:00;6.78;;;1.38;;
43124;SDS011;49182;50.788;7.318;2022-08-03T12:56:27;6.30;;;1.38;;
43124;SDS011;49182;50.788;7.318;2022-08-03T12:58:54;7.15;;;2.03;;
43124;SDS011;49182;50.788;7.318;2022-08-03T13:01:21;2.35;;;1.20;;
43124;SDS011;49182;50.788;7.318;2022-08-03T13:03:48;7.43;;;1.67;;
43124;SDS011;49182;50.788;7.318;2022-08-03T13:06:20;3.90;;;1.20;;
43124;SDS011;49182;50.788;7.318;2022-08-03T13:08:48;3.65;;;1.45;;
43124;SDS011;49182;50.788;7.318;2022-08-03T13:11:26;3.20;;;1.30;;
43124;SDS011;49182;50.788;7.318;2022-08-03T13:14:13;4.75;;;1.30;;
43124;SDS011;49182;50.788;7.318;2022-08-03T13:16:46;3.00;;;1.20;;
43124;SDS011;49182;50.788;7.318;2022-08-03T13:19:13;3.08;;;1.40;;
43124;SDS011;49182;50.788;7.318;2022-08-03T13:21:43;2.60;;;1.23;;
43124;SDS011;49182;50.788;7.318;2022-08-03T13:24:30;2.95;;;1.30;;
43124;SDS011;49182;50.788;7.318;2022-08-03T13:26:57;3.55;;;1.15;;
43124;SDS011;49182;50.788;7.318;2022-08-03T13:29:24;2.50;;;1.08;;
43124;SDS011;49182;50.788;7.318;2022-08-03T13:31:51;3.25;;;1.20;;
43124;SDS011;49182;50.788;7.318;2022-08-03T13:34:18;4.57;;;1.30;;
43124;SDS011;49182;50.788;7.318;2022-08-03T13:36:50;6.18;;;1.50;;
43124;SDS011;49182;50.788;7.318;2022-08-03T13:39:34;8.02;;;1.20;;
43124;SDS011;49182;50.788;7.318;2022-08-03T13:42:21;4.72;;;1.30;;
43124;SDS011;49182;50.788;7.318;2022-08-03T13:44:48;4.90;;;1.30;;
43124;SDS011;49182;50.788;7.318;2022-08-03T13:47:15;3.95;;;1.00;;
43124;SDS011;49182;50.788;7.318;2022-08-03T13:49:41;4.78;;;1.30;;
43124;SDS011;49182;50.788;7.318;2022-08-03T13:52:29;4.38;;;1.25;;
43124;SDS011;49182;50.788;7.318;2022-08-03T13:54:56;5.50;;;1.30;;
43124;SDS011;49182;50.788;7.318;2022-08-03T13:57:23;4.70;;;1.20;;
43124;SDS011;49182;50.788;7.318;2022-08-03T14:00:11;5.93;;;1.20;;
43124;SDS011;49182;50.788;7.318;2022-08-03T14:02:51;2.75;;;1.40;;
43124;SDS011;49182;50.788;7.318;2022-08-03T14:05:18;4.38;;;1.60;;
43124;SDS011;49182;50.788;7.318;2022-08-03T14:07:46;4.43;;;1.30;;
43124;SDS011;49182;50.788;7.318;2022-08-03T14:10:12;3.38;;;1.30;;
43124;SDS011;49182;50.788;7.318;2022-08-03T14:12:39;3.15;;;1.30;;
43124;SDS011;49182;50.788;7.318;2022-08-03T14:15:06;4.47;;;1.30;;
43124;SDS011;49182;50.788;7.318;2022-08-03T14:17:34;2.53;;;1.10;;
43124;SDS011;49182;50.788;7.318;2022-08-03T14:20:15;3.70;;;1.40;;
43124;SDS011;49182;50.788;7.318;2022-08-03T14:23:03;4.00;;;1.65;;
43124;SDS011;49182;50.788;7.318;2022-08-03T14:25:30;7.18;;;1.48;;
43124;SDS011;49182;50.788;7.318;2022-08-03T14:28:10;2.92;;;1.20;;
43124;SDS011;49182;50.788;7.318;2022-08-03T14:30:37;5.65;;;1.77;;
43124;SDS011;49182;50.788;7.318;2022-08-03T14:33:03;3.50;;;1.10;;
43124;SDS011;49182;50.788;7.318;2022-08-03T14:35:30;7.05;;;1.10;;
43124;SDS011;49182;50.788;7.318;2022-08-03T14:37:56;4.03;;;1.63;;
43124;SDS011;49182;50.788;7.318;2022-08-03T14:40:25;3.17;;;1.23;;
43124;SDS011;49182;50.788;7.318;2022-08-03T14:42:51;3.58;;;1.30;;
43124;SDS011;49182;50.788;7.318;2022-08-03T14:45:18;6.47;;;1.60;;
43124;SDS011;49182;50.788;7.318;2022-08-03T14:47:46;4.85;;;1.38;;
43124;SDS011;49182;50.788;7.318;2022-08-03T14:50:32;3.75;;;1.35;;
43124;SDS011;49182;50.788;7.318;2022-08-03T14:53:10;4.80;;;1.20;;
43124;SDS011;49182;50.788;7.318;2022-08-03T14:55:39;4.00;;;1.20;;
43124;SDS011;49182;50.788;7.318;2022-08-03T14:58:16;5.32;;;1.17;;
43124;SDS011;49182;50.788;7.318;2022-08-03T15:00:47;3.08;;;1.17;;
43124;SDS011;49182;50.788;7.318;2022-08-03T15:03:14;4.18;;;1.00;;
43124;SDS011;49182;50.788;7.318;2022-08-03T15:05:42;3.22;;;1.00;;
43124;SDS011;49182;50.788;7.318;2022-08-03T15:08:09;3.53;;;1.10;;
43124;SDS011;49182;50.788;7.318;2022-08-03T15:10:36;3.50;;;1.17;;
43124;SDS011;49182;50.788;7.318;2022-08-03T15:13:12;2.63;;;0.93;;
43124;SDS011;49182;50.788;7.318;2022-08-03T15:15:39;8.40;;;1.10;;
43124;SDS011;49182;50.788;7.318;2022-08-03T15:18:06;3.55;;;1.00;;
43124;SDS011;49182;50.788;7.318;2022-08-03T15:20:33;4.93;;;0.98;;
43124;SDS011;49182;50.788;7.318;2022-08-03T15:23:15;2.67;;;1.08;;